sensor_id;sensor_type;location;lat;lon;timestamp;pressure;altitude;pressure_sealevel;temperature;humidity
43701;BME280;58809;47.984;7.964;2022-12-26T00:01:06;97308.31;;;13.32;67.45
43701;BME280;58809;47.984;7.964;2022-12-26T00:04:09;97303.19;;;13.31;67.66
43701;BME280;58809;47.984;7.964;2022-12-26T00:07:31;97308.50;;;13.31;67.78
43701;BME280;58809;47.984;7.964;2022-12-26T00:10:32;97292.91;;;13.27;67.77
43701;BME280;58809;47.984;7.964;2022-12-26T00:13:34;97305.94;;;13.22;68.15
43701;BME280;58809;47.984;7.964;2022-12-26T00:16:43;97305.19;;;13.28;67.85
43701;BME280;58809;47.984;7.964;2022-12-26T00:19:45;97312.81;;;13.32;67.60
43701;BME280;58809;47.984;7.964;2022-12-26T00:22:46;97316.91;;;13.34;67.28
43701;BME280;58809;47.984;7.964;2022-12-26T00:25:48;97300.59;;;13.44;66.83
43701;BME280;58809;47.984;7.964;2022-12-26T00:28:52;97303.00;;;13.32;67.18
43701;BME280;58809;47.984;7.964;2022-12-26T00:31:54;97306.66;;;13.31;67.57
43701;BME280;58809;47.984;7.964;2022-12-26T00:34:56;97289.63;;;13.25;67.63
43701;BME280;58809;47.984;7.964;2022-12-26T00:37:57;97302.66;;;13.20;67.77
43701;BME280;58809;47.984;7.964;2022-12-26T00:40:59;97296.72;;;13.18;67.54
43701;BME280;58809;47.984;7.964;2022-12-26T00:44:01;97330.09;;;13.21;67.37
43701;BME280;58809;47.984;7.964;2022-12-26T00:47:03;97309.97;;;13.40;66.05
43701;BME280;58809;47.984;7.964;2022-12-26T00:50:05;97301.00;;;13.47;65.81
43701;BME280;58809;47.984;7.964;2022-12-26T00:53:14;97307.56;;;13.45;65.81
43701;BME280;58809;47.984;7.964;2022-12-26T00:56:16;97326.25;;;13.30;66.18
43701;BME280;58809;47.984;7.964;2022-12-26T00:59:17;97297.50;;;13.40;65.07
43701;BME280;58809;47.984;7.964;2022-12-26T01:02:19;97311.81;;;13.39;65.04
43701;BME280;58809;47.984;7.964;2022-12-26T01:05:44;97305.03;;;13.37;65.34
43701;BME280;58809;47.984;7.964;2022-12-26T01:08:48;97308.97;;;13.41;65.00
43701;BME280;58809;47.984;7.964;2022-12-26T01:11:50;97305.47;;;13.40;64.82
43701;BME280;58809;47.984;7.964;2022-12-26T01:14:54;97306.31;;;13.41;64.71
43701;BME280;58809;47.984;7.964;2022-12-26T01:17:58;97307.50;;;13.38;64.91
43701;BME280;58809;47.984;7.964;2022-12-26T01:21:06;97321.06;;;13.22;65.68
43701;BME280;58809;47.984;7.964;2022-12-26T01:24:08;97332.53;;;13.22;65.28
43701;BME280;58809;47.984;7.964;2022-12-26T01:27:10;97323.13;;;13.20;65.60
43701;BME280;58809;47.984;7.964;2022-12-26T01:30:12;97323.16;;;13.26;65.16
43701;BME280;58809;47.984;7.964;2022-12-26T01:33:14;97309.31;;;13.31;64.79
43701;BME280;58809;47.984;7.964;2022-12-26T01:36:17;97321.78;;;13.31;64.58
43701;BME280;58809;47.984;7.964;2022-12-26T01:39:19;97296.16;;;13.23;65.14
43701;BME280;58809;47.984;7.964;2022-12-26T01:42:24;97309.56;;;13.08;65.71
43701;BME280;58809;47.984;7.964;2022-12-26T01:45:30;97305.25;;;13.07;65.63
43701;BME280;58809;47.984;7.964;2022-12-26T01:48:33;97339.88;;;13.20;64.96
43701;BME280;58809;47.984;7.964;2022-12-26T01:51:38;97330.72;;;13.29;64.10
43701;BME280;58809;47.984;7.964;2022-12-26T01:54:44;97331.75;;;13.28;64.32
43701;BME280;58809;47.984;7.964;2022-12-26T01:57:55;97328.44;;;13.20;64.86
43701;BME280;58809;47.984;7.964;2022-12-26T02:00:58;97324.59;;;13.29;64.31
43701;BME280;58809;47.984;7.964;2022-12-26T02:04:06;97335.59;;;13.26;64.58
43701;BME280;58809;47.984;7.964;2022-12-26T02:07:28;97317.53;;;13.08;65.16
43701;BME280;58809;47.984;7.964;2022-12-26T02:10:35;97328.00;;;13.16;65.01
43701;BME280;58809;47.984;7.964;2022-12-26T02:13:39;97330.91;;;13.21;64.32
43701;BME280;58809;47.984;7.964;2022-12-26T02:16:41;97340.72;;;13.21;64.46
43701;BME280;58809;47.984;7.964;2022-12-26T02:19:59;97350.38;;;13.28;64.53
43701;BME280;58809;47.984;7.964;2022-12-26T02:33:12;97351.88;;;13.38;64.32
43701;BME280;58809;47.984;7.964;2022-12-26T02:43:05;97339.47;;;13.45;64.08
43701;BME280;58809;47.984;7.964;2022-12-26T02:53:29;97326.94;;;13.39;64.22
43701;BME280;58809;47.984;7.964;2022-12-26T02:56:56;97323.47;;;13.38;64.42
43701;BME280;58809;47.984;7.964;2022-12-26T03:00:19;97331.63;;;13.37;64.47
43701;BME280;58809;47.984;7.964;2022-12-26T03:03:40;97339.22;;;13.40;64.44
43701;BME280;58809;47.984;7.964;2022-12-26T03:07:10;97333.09;;;13.39;64.36
43701;BME280;58809;47.984;7.964;2022-12-26T03:10:34;97323.44;;;13.32;64.76
43701;BME280;58809;47.984;7.964;2022-12-26T03:14:06;97323.94;;;13.20;65.06
43701;BME280;58809;47.984;7.964;2022-12-26T03:17:26;97332.94;;;13.19;64.91
43701;BME280;58809;47.984;7.964;2022-12-26T03:20:32;97323.97;;;13.27;64.98
43701;BME280;58809;47.984;7.964;2022-12-26T03:23:39;97327.44;;;13.21;65.11
43701;BME280;58809;47.984;7.964;2022-12-26T03:26:47;97319.16;;;13.09;65.60
43701;BME280;58809;47.984;7.964;2022-12-26T03:29:50;97313.22;;;13.07;65.49
43701;BME280;58809;47.984;7.964;2022-12-26T03:33:10;97320.19;;;13.08;65.63
43701;BME280;58809;47.984;7.964;2022-12-26T03:43:47;97313.63;;;13.32;64.68
43701;BME280;58809;47.984;7.964;2022-12-26T03:47:34;97307.22;;;13.26;64.45
43701;BME280;58809;47.984;7.964;2022-12-26T03:51:06;97330.94;;;13.28;64.85
43701;BME280;58809;47.984;7.964;2022-12-26T03:54:35;97331.31;;;13.25;65.07
43701;BME280;58809;47.984;7.964;2022-12-26T04:01:26;97318.00;;;13.46;63.73
43701;BME280;58809;47.984;7.964;2022-12-26T04:04:51;97315.53;;;13.45;63.79
43701;BME280;58809;47.984;7.964;2022-12-26T04:08:20;97333.53;;;13.50;63.54
43701;BME280;58809;47.984;7.964;2022-12-26T04:11:44;97319.06;;;13.59;63.23
43701;BME280;58809;47.984;7.964;2022-12-26T04:15:14;97321.09;;;13.50;63.73
43701;BME280;58809;47.984;7.964;2022-12-26T04:18:42;97317.19;;;13.53;63.42
43701;BME280;58809;47.984;7.964;2022-12-26T04:22:22;97320.09;;;13.64;63.46
43701;BME280;58809;47.984;7.964;2022-12-26T04:25:50;97318.47;;;13.63;62.89
43701;BME280;58809;47.984;7.964;2022-12-26T04:29:13;97306.19;;;13.56;63.44
43701;BME280;58809;47.984;7.964;2022-12-26T04:32:47;97312.31;;;13.56;63.60
43701;BME280;58809;47.984;7.964;2022-12-26T04:36:14;97311.50;;;13.56;63.72
43701;BME280;58809;47.984;7.964;2022-12-26T04:39:35;97312.31;;;13.56;63.49
43701;BME280;58809;47.984;7.964;2022-12-26T04:42:58;97304.91;;;13.52;63.61
43701;BME280;58809;47.984;7.964;2022-12-26T04:46:41;97295.13;;;13.52;63.60
43701;BME280;58809;47.984;7.964;2022-12-26T04:49:44;97300.63;;;13.51;63.57
43701;BME280;58809;47.984;7.964;2022-12-26T04:53:04;97299.63;;;13.58;63.37
43701;BME280;58809;47.984;7.964;2022-12-26T04:56:07;97294.94;;;13.60;63.03
43701;BME280;58809;47.984;7.964;2022-12-26T04:59:09;97297.59;;;13.60;63.23
43701;BME280;58809;47.984;7.964;2022-12-26T05:02:11;97302.50;;;13.57;63.25
43701;BME280;58809;47.984;7.964;2022-12-26T05:05:37;97295.97;;;13.59;63.45
43701;BME280;58809;47.984;7.964;2022-12-26T05:08:57;97298.03;;;13.64;63.21
43701;BME280;58809;47.984;7.964;2022-12-26T05:12:18;97313.78;;;13.65;63.13
43701;BME280;58809;47.984;7.964;2022-12-26T05:15:20;97310.75;;;13.69;63.04
43701;BME280;58809;47.984;7.964;2022-12-26T05:18:22;97300.34;;;13.74;62.65
43701;BME280;58809;47.984;7.964;2022-12-26T05:21:43;97310.75;;;13.75;62.87
43701;BME280;58809;47.984;7.964;2022-12-26T05:25:04;97311.97;;;13.73;62.88
43701;BME280;58809;47.984;7.964;2022-12-26T05:28:24;97310.50;;;13.63;63.24
43701;BME280;58809;47.984;7.964;2022-12-26T05:31:43;97305.19;;;13.63;63.17
43701;BME280;58809;47.984;7.964;2022-12-26T05:34:46;97310.31;;;13.65;63.24
43701;BME280;58809;47.984;7.964;2022-12-26T05:37:48;97307.22;;;13.61;63.33
43701;BME280;58809;47.984;7.964;2022-12-26T05:40:49;97299.47;;;13.66;63.10
43701;BME280;58809;47.984;7.964;2022-12-26T05:43:51;97305.00;;;13.65;63.18
43701;BME280;58809;47.984;7.964;2022-12-26T05:46:52;97311.31;;;13.64;63.18
43701;BME280;58809;47.984;7.964;2022-12-26T05:49:54;97317.25;;;13.59;63.38
43701;BME280;58809;47.984;7.964;2022-12-26T05:52:56;97313.56;;;13.60;63.55
43701;BME280;58809;47.984;7.964;2022-12-26T05:56:06;97312.31;;;13.56;63.92
43701;BME280;58809;47.984;7.964;2022-12-26T05:59:08;97306.19;;;13.56;63.65
43701;BME280;58809;47.984;7.964;2022-12-26T06:02:10;97298.00;;;13.57;63.74
43701;BME280;58809;47.984;7.964;2022-12-26T06:09:59;97292.66;;;13.51;63.82
43701;BME280;58809;47.984;7.964;2022-12-26T06:13:00;97278.69;;;13.42;63.86
43701;BME280;58809;47.984;7.964;2022-12-26T06:16:07;97269.50;;;13.38;64.13
43701;BME280;58809;47.984;7.964;2022-12-26T06:19:09;97269.50;;;13.38;64.32
43701;BME280;58809;47.984;7.964;2022-12-26T06:22:10;97272.25;;;13.29;64.95
43701;BME280;58809;47.984;7.964;2022-12-26T06:25:12;97267.91;;;13.15;65.15
43701;BME280;58809;47.984;7.964;2022-12-26T06:28:13;97265.59;;;13.05;66.05
43701;BME280;58809;47.984;7.964;2022-12-26T06:31:18;97264.16;;;13.03;66.48
43701;BME280;58809;47.984;7.964;2022-12-26T06:34:22;97255.94;;;12.98;67.19
43701;BME280;58809;47.984;7.964;2022-12-26T06:37:24;97266.56;;;12.98;66.61
43701;BME280;58809;47.984;7.964;2022-12-26T06:40:26;97259.22;;;13.00;66.74
43701;BME280;58809;47.984;7.964;2022-12-26T06:43:27;97264.09;;;12.96;66.88
43701;BME280;58809;47.984;7.964;2022-12-26T06:46:30;97265.34;;;13.00;66.87
43701;BME280;58809;47.984;7.964;2022-12-26T06:49:31;97254.16;;;13.05;66.43
43701;BME280;58809;47.984;7.964;2022-12-26T06:52:33;97260.13;;;13.14;66.10
43701;BME280;58809;47.984;7.964;2022-12-26T06:55:35;97246.25;;;13.18;65.93
43701;BME280;58809;47.984;7.964;2022-12-26T06:58:37;97246.66;;;13.15;66.08
43701;BME280;58809;47.984;7.964;2022-12-26T07:01:39;97258.09;;;13.16;65.98
43701;BME280;58809;47.984;7.964;2022-12-26T07:04:41;97256.31;;;13.29;65.01
43701;BME280;58809;47.984;7.964;2022-12-26T07:07:42;97258.13;;;13.22;65.54
43701;BME280;58809;47.984;7.964;2022-12-26T07:10:44;97259.94;;;13.15;65.56
43701;BME280;58809;47.984;7.964;2022-12-26T07:13:46;97264.72;;;13.26;65.21
43701;BME280;58809;47.984;7.964;2022-12-26T07:16:47;97268.91;;;13.49;63.81
43701;BME280;58809;47.984;7.964;2022-12-26T07:19:49;97264.06;;;13.59;63.09
43701;BME280;58809;47.984;7.964;2022-12-26T07:22:53;97276.75;;;13.64;63.10
43701;BME280;58809;47.984;7.964;2022-12-26T07:25:54;97280.03;;;13.66;62.60
43701;BME280;58809;47.984;7.964;2022-12-26T07:28:58;97281.31;;;13.77;61.50
43701;BME280;58809;47.984;7.964;2022-12-26T07:32:00;97285.69;;;14.04;60.69
43701;BME280;58809;47.984;7.964;2022-12-26T07:35:01;97275.47;;;14.15;60.09
43701;BME280;58809;47.984;7.964;2022-12-26T07:38:03;97284.28;;;14.22;59.92
43701;BME280;58809;47.984;7.964;2022-12-26T07:41:05;97290.66;;;14.28;59.41
43701;BME280;58809;47.984;7.964;2022-12-26T07:44:29;97290.22;;;14.24;59.69
43701;BME280;58809;47.984;7.964;2022-12-26T07:47:31;97288.38;;;14.24;59.70
43701;BME280;58809;47.984;7.964;2022-12-26T07:50:33;97298.81;;;14.19;60.10
43701;BME280;58809;47.984;7.964;2022-12-26T07:53:34;97296.53;;;14.10;60.16
43701;BME280;58809;47.984;7.964;2022-12-26T07:56:36;97305.34;;;14.10;60.33
43701;BME280;58809;47.984;7.964;2022-12-26T07:59:38;97312.94;;;14.13;59.86
43701;BME280;58809;47.984;7.964;2022-12-26T08:02:39;97319.06;;;14.14;59.78
43701;BME280;58809;47.984;7.964;2022-12-26T08:05:46;97319.66;;;13.96;61.26
43701;BME280;58809;47.984;7.964;2022-12-26T08:08:49;97339.22;;;13.81;62.04
43701;BME280;58809;47.984;7.964;2022-12-26T08:11:52;97355.88;;;13.27;65.26
43701;BME280;58809;47.984;7.964;2022-12-26T08:14:53;97359.53;;;12.69;69.12
43701;BME280;58809;47.984;7.964;2022-12-26T08:17:55;97361.66;;;12.01;74.67
43701;BME280;58809;47.984;7.964;2022-12-26T08:20:58;97374.81;;;11.50;79.93
43701;BME280;58809;47.984;7.964;2022-12-26T08:24:00;97385.41;;;11.20;83.81
43701;BME280;58809;47.984;7.964;2022-12-26T08:27:03;97395.25;;;11.11;86.06
43701;BME280;58809;47.984;7.964;2022-12-26T08:30:05;97399.81;;;11.03;90.65
43701;BME280;58809;47.984;7.964;2022-12-26T08:33:08;97397.94;;;10.88;94.13
43701;BME280;58809;47.984;7.964;2022-12-26T08:36:11;97415.59;;;10.96;95.93
43701;BME280;58809;47.984;7.964;2022-12-26T08:39:13;97412.84;;;11.04;97.46
43701;BME280;58809;47.984;7.964;2022-12-26T08:42:15;97433.66;;;10.92;100.00
43701;BME280;58809;47.984;7.964;2022-12-26T08:45:17;97447.41;;;10.65;100.00
43701;BME280;58809;47.984;7.964;2022-12-26T08:48:21;97444.13;;;10.31;100.00
43701;BME280;58809;47.984;7.964;2022-12-26T08:51:24;97463.59;;;10.30;100.00
43701;BME280;58809;47.984;7.964;2022-12-26T08:54:26;97470.72;;;10.30;100.00
43701;BME280;58809;47.984;7.964;2022-12-26T08:57:29;97475.53;;;10.26;100.00
43701;BME280;58809;47.984;7.964;2022-12-26T09:00:31;97483.94;;;10.30;100.00
43701;BME280;58809;47.984;7.964;2022-12-26T09:03:33;97493.56;;;10.31;100.00
43701;BME280;58809;47.984;7.964;2022-12-26T09:06:36;97476.09;;;10.13;100.00
43701;BME280;58809;47.984;7.964;2022-12-26T09:09:38;97487.00;;;10.10;100.00
43701;BME280;58809;47.984;7.964;2022-12-26T09:12:40;97501.03;;;10.19;100.00
43701;BME280;58809;47.984;7.964;2022-12-26T09:15:41;97478.84;;;10.20;100.00
43701;BME280;58809;47.984;7.964;2022-12-26T09:18:44;97485.09;;;10.27;100.00
43701;BME280;58809;47.984;7.964;2022-12-26T09:21:48;97494.19;;;10.33;100.00
43701;BME280;58809;47.984;7.964;2022-12-26T09:25:10;97504.75;;;10.41;100.00
43701;BME280;58809;47.984;7.964;2022-12-26T09:28:11;97515.47;;;10.48;100.00
43701;BME280;58809;47.984;7.964;2022-12-26T09:31:15;97523.09;;;10.43;100.00
43701;BME280;58809;47.984;7.964;2022-12-26T09:34:17;97523.47;;;10.23;100.00
43701;BME280;58809;47.984;7.964;2022-12-26T09:37:19;97530.91;;;10.19;100.00
43701;BME280;58809;47.984;7.964;2022-12-26T09:40:23;97542.03;;;10.15;100.00
43701;BME280;58809;47.984;7.964;2022-12-26T09:47:28;97574.56;;;10.15;100.00
43701;BME280;58809;47.984;7.964;2022-12-26T09:50:36;97559.88;;;10.05;100.00
43701;BME280;58809;47.984;7.964;2022-12-26T09:53:45;97562.41;;;9.90;100.00
43701;BME280;58809;47.984;7.964;2022-12-26T09:56:49;97575.28;;;9.85;100.00
43701;BME280;58809;47.984;7.964;2022-12-26T10:00:04;97570.34;;;9.90;100.00
43701;BME280;58809;47.984;7.964;2022-12-26T10:03:12;97572.94;;;9.98;100.00
43701;BME280;58809;47.984;7.964;2022-12-26T10:12:57;97604.69;;;10.06;100.00
43701;BME280;58809;47.984;7.964;2022-12-26T10:16:10;97605.69;;;9.97;100.00
43701;BME280;58809;47.984;7.964;2022-12-26T10:22:59;97622.19;;;9.91;100.00
43701;BME280;58809;47.984;7.964;2022-12-26T10:29:46;97606.34;;;9.91;100.00
43701;BME280;58809;47.984;7.964;2022-12-26T10:32:56;97610.31;;;9.87;100.00
43701;BME280;58809;47.984;7.964;2022-12-26T10:36:01;97612.31;;;9.93;100.00
43701;BME280;58809;47.984;7.964;2022-12-26T10:39:12;97617.88;;;9.98;100.00
43701;BME280;58809;47.984;7.964;2022-12-26T10:42:36;97634.25;;;10.01;100.00
43701;BME280;58809;47.984;7.964;2022-12-26T10:45:44;97631.59;;;10.10;100.00
43701;BME280;58809;47.984;7.964;2022-12-26T10:48:49;97619.22;;;10.02;100.00
43701;BME280;58809;47.984;7.964;2022-12-26T10:51:54;97611.28;;;10.02;100.00
43701;BME280;58809;47.984;7.964;2022-12-26T10:54:58;97621.69;;;10.12;100.00
43701;BME280;58809;47.984;7.964;2022-12-26T10:58:27;97615.06;;;10.16;100.00
43701;BME280;58809;47.984;7.964;2022-12-26T11:01:35;97627.13;;;10.10;100.00
43701;BME280;58809;47.984;7.964;2022-12-26T11:04:37;97599.06;;;10.09;100.00
43701;BME280;58809;47.984;7.964;2022-12-26T11:11:32;97607.66;;;10.11;100.00
43701;BME280;58809;47.984;7.964;2022-12-26T11:15:00;97614.25;;;10.15;100.00
43701;BME280;58809;47.984;7.964;2022-12-26T11:18:16;97601.72;;;10.09;100.00
43701;BME280;58809;47.984;7.964;2022-12-26T11:21:23;97603.50;;;10.17;100.00
43701;BME280;58809;47.984;7.964;2022-12-26T11:24:25;97607.28;;;10.23;100.00
43701;BME280;58809;47.984;7.964;2022-12-26T11:27:27;97613.22;;;10.16;100.00
43701;BME280;58809;47.984;7.964;2022-12-26T11:30:31;97627.44;;;10.24;100.00
43701;BME280;58809;47.984;7.964;2022-12-26T11:33:35;97625.94;;;10.29;100.00
43701;BME280;58809;47.984;7.964;2022-12-26T11:36:38;97596.38;;;10.34;100.00
43701;BME280;58809;47.984;7.964;2022-12-26T11:39:49;97576.22;;;10.25;100.00
43701;BME280;58809;47.984;7.964;2022-12-26T11:42:55;97570.25;;;10.31;100.00
43701;BME280;58809;47.984;7.964;2022-12-26T11:45:57;97587.78;;;10.32;100.00
43701;BME280;58809;47.984;7.964;2022-12-26T11:48:59;97583.63;;;10.29;100.00
43701;BME280;58809;47.984;7.964;2022-12-26T11:55:35;97602.84;;;10.15;100.00
43701;BME280;58809;47.984;7.964;2022-12-26T11:58:38;97595.41;;;10.10;100.00
43701;BME280;58809;47.984;7.964;2022-12-26T12:01:39;97600.03;;;10.08;100.00
43701;BME280;58809;47.984;7.964;2022-12-26T12:04:43;97596.56;;;9.99;100.00
43701;BME280;58809;47.984;7.964;2022-12-26T12:07:55;97600.72;;;9.94;100.00
43701;BME280;58809;47.984;7.964;2022-12-26T12:14:45;97609.13;;;9.97;100.00
43701;BME280;58809;47.984;7.964;2022-12-26T12:18:21;97605.66;;;9.89;100.00
43701;BME280;58809;47.984;7.964;2022-12-26T12:21:31;97609.00;;;9.82;100.00
43701;BME280;58809;47.984;7.964;2022-12-26T12:35:02;97606.00;;;9.77;100.00
43701;BME280;58809;47.984;7.964;2022-12-26T12:38:24;97590.16;;;9.77;100.00
43701;BME280;58809;47.984;7.964;2022-12-26T12:44:56;97583.06;;;9.70;100.00
43701;BME280;58809;47.984;7.964;2022-12-26T12:48:19;97578.09;;;9.67;100.00
43701;BME280;58809;47.984;7.964;2022-12-26T12:51:32;97572.00;;;9.66;100.00
43701;BME280;58809;47.984;7.964;2022-12-26T12:58:17;97601.75;;;9.60;100.00
43701;BME280;58809;47.984;7.964;2022-12-26T13:01:26;97603.69;;;9.58;100.00
43701;BME280;58809;47.984;7.964;2022-12-26T13:04:37;97607.84;;;9.60;100.00
43701;BME280;58809;47.984;7.964;2022-12-26T13:07:44;97606.19;;;9.59;100.00
43701;BME280;58809;47.984;7.964;2022-12-26T13:10:55;97598.09;;;9.61;100.00
43701;BME280;58809;47.984;7.964;2022-12-26T13:14:15;97608.50;;;9.62;100.00
43701;BME280;58809;47.984;7.964;2022-12-26T13:17:25;97604.69;;;9.65;100.00
43701;BME280;58809;47.984;7.964;2022-12-26T13:21:04;97584.69;;;9.71;100.00
43701;BME280;58809;47.984;7.964;2022-12-26T13:24:15;97565.56;;;9.69;100.00
43701;BME280;58809;47.984;7.964;2022-12-26T13:30:30;97552.19;;;9.78;100.00
43701;BME280;58809;47.984;7.964;2022-12-26T13:33:34;97571.31;;;9.72;100.00
43701;BME280;58809;47.984;7.964;2022-12-26T13:39:39;97567.03;;;9.47;100.00
43701;BME280;58809;47.984;7.964;2022-12-26T13:42:55;97579.63;;;9.53;100.00
43701;BME280;58809;47.984;7.964;2022-12-26T13:49:40;97567.69;;;9.81;100.00
43701;BME280;58809;47.984;7.964;2022-12-26T13:52:42;97570.00;;;9.85;100.00
43701;BME280;58809;47.984;7.964;2022-12-26T13:55:44;97578.44;;;9.88;100.00
43701;BME280;58809;47.984;7.964;2022-12-26T14:09:38;97589.13;;;10.03;100.00
43701;BME280;58809;47.984;7.964;2022-12-26T14:16:08;97560.72;;;10.05;100.00
43701;BME280;58809;47.984;7.964;2022-12-26T14:19:34;97571.28;;;10.05;100.00
43701;BME280;58809;47.984;7.964;2022-12-26T14:22:55;97545.50;;;10.07;100.00
43701;BME280;58809;47.984;7.964;2022-12-26T14:26:03;97554.13;;;10.09;100.00
43701;BME280;58809;47.984;7.964;2022-12-26T14:35:50;97544.50;;;10.08;100.00
43701;BME280;58809;47.984;7.964;2022-12-26T14:39:02;97558.06;;;10.05;100.00
43701;BME280;58809;47.984;7.964;2022-12-26T14:51:35;97548.81;;;10.09;100.00
43701;BME280;58809;47.984;7.964;2022-12-26T14:54:38;97546.19;;;10.09;100.00
43701;BME280;58809;47.984;7.964;2022-12-26T14:57:47;97535.59;;;10.09;100.00
43701;BME280;58809;47.984;7.964;2022-12-26T15:00:49;97546.50;;;10.06;100.00
43701;BME280;58809;47.984;7.964;2022-12-26T15:07:32;97551.28;;;10.11;100.00
43701;BME280;58809;47.984;7.964;2022-12-26T15:34:48;97543.97;;;10.21;100.00
43701;BME280;58809;47.984;7.964;2022-12-26T15:37:57;97520.50;;;10.18;100.00
43701;BME280;58809;47.984;7.964;2022-12-26T15:41:22;97524.34;;;10.15;100.00
43701;BME280;58809;47.984;7.964;2022-12-26T15:44:37;97518.72;;;10.18;100.00
43701;BME280;58809;47.984;7.964;2022-12-26T15:47:47;97530.44;;;10.16;100.00
43701;BME280;58809;47.984;7.964;2022-12-26T15:51:16;97542.69;;;10.17;100.00
43701;BME280;58809;47.984;7.964;2022-12-26T15:54:25;97559.84;;;10.21;100.00
43701;BME280;58809;47.984;7.964;2022-12-26T15:58:01;97548.09;;;10.24;100.00
43701;BME280;58809;47.984;7.964;2022-12-26T16:01:08;97552.25;;;10.18;100.00
43701;BME280;58809;47.984;7.964;2022-12-26T16:04:42;97553.59;;;10.22;100.00
43701;BME280;58809;47.984;7.964;2022-12-26T16:14:32;97547.44;;;10.21;100.00
43701;BME280;58809;47.984;7.964;2022-12-26T16:17:41;97572.09;;;10.22;100.00
43701;BME280;58809;47.984;7.964;2022-12-26T16:20:44;97545.97;;;10.19;100.00
43701;BME280;58809;47.984;7.964;2022-12-26T16:24:09;97547.13;;;10.16;100.00
43701;BME280;58809;47.984;7.964;2022-12-26T16:27:16;97565.34;;;10.11;100.00
43701;BME280;58809;47.984;7.964;2022-12-26T16:30:33;97557.91;;;10.15;100.00
43701;BME280;58809;47.984;7.964;2022-12-26T16:33:41;97572.91;;;10.23;100.00
43701;BME280;58809;47.984;7.964;2022-12-26T16:36:43;97553.38;;;10.24;100.00
43701;BME280;58809;47.984;7.964;2022-12-26T16:40:04;97542.00;;;10.23;100.00
43701;BME280;58809;47.984;7.964;2022-12-26T16:46:14;97570.75;;;10.26;100.00
43701;BME280;58809;47.984;7.964;2022-12-26T16:49:21;97583.31;;;10.32;100.00
43701;BME280;58809;47.984;7.964;2022-12-26T16:52:37;97560.16;;;10.34;100.00
43701;BME280;58809;47.984;7.964;2022-12-26T16:55:55;97557.38;;;10.28;100.00
43701;BME280;58809;47.984;7.964;2022-12-26T16:59:12;97560.53;;;10.31;100.00
43701;BME280;58809;47.984;7.964;2022-12-26T17:02:23;97554.06;;;10.34;100.00
43701;BME280;58809;47.984;7.964;2022-12-26T17:08:29;97574.03;;;10.36;100.00
43701;BME280;58809;47.984;7.964;2022-12-26T17:11:34;97577.66;;;10.44;100.00
43701;BME280;58809;47.984;7.964;2022-12-26T17:14:39;97559.97;;;10.44;100.00
43701;BME280;58809;47.984;7.964;2022-12-26T17:17:41;97575.84;;;10.44;98.84
43701;BME280;58809;47.984;7.964;2022-12-26T17:20:46;97559.63;;;10.47;99.52
43701;BME280;58809;47.984;7.964;2022-12-26T17:30:26;97568.56;;;10.46;98.38
43701;BME280;58809;47.984;7.964;2022-12-26T17:33:31;97580.94;;;10.54;96.48
43701;BME280;58809;47.984;7.964;2022-12-26T17:36:34;97600.94;;;10.56;97.44
43701;BME280;58809;47.984;7.964;2022-12-26T17:43:37;97617.59;;;10.65;95.56
43701;BME280;58809;47.984;7.964;2022-12-26T17:46:38;97630.03;;;10.65;96.91
43701;BME280;58809;47.984;7.964;2022-12-26T17:49:40;97608.84;;;10.65;96.44
43701;BME280;58809;47.984;7.964;2022-12-26T17:52:42;97626.34;;;10.66;96.98
43701;BME280;58809;47.984;7.964;2022-12-26T17:55:43;97599.72;;;10.67;97.00
43701;BME280;58809;47.984;7.964;2022-12-26T17:58:46;97606.84;;;10.67;97.38
43701;BME280;58809;47.984;7.964;2022-12-26T18:01:48;97600.91;;;10.65;98.24
43701;BME280;58809;47.984;7.964;2022-12-26T18:04:50;97582.72;;;10.62;97.64
43701;BME280;58809;47.984;7.964;2022-12-26T18:07:52;97605.19;;;10.66;98.06
43701;BME280;58809;47.984;7.964;2022-12-26T18:10:54;97618.09;;;10.69;98.20
43701;BME280;58809;47.984;7.964;2022-12-26T18:13:55;97620.72;;;10.69;97.12
43701;BME280;58809;47.984;7.964;2022-12-26T18:16:57;97613.13;;;10.74;96.44
43701;BME280;58809;47.984;7.964;2022-12-26T18:20:00;97615.44;;;10.77;95.98
43701;BME280;58809;47.984;7.964;2022-12-26T18:23:04;97614.75;;;10.75;96.17
43701;BME280;58809;47.984;7.964;2022-12-26T18:26:13;97641.75;;;10.70;96.27
43701;BME280;58809;47.984;7.964;2022-12-26T18:29:17;97615.44;;;10.69;97.17
43701;BME280;58809;47.984;7.964;2022-12-26T18:32:29;97629.66;;;10.68;97.88
43701;BME280;58809;47.984;7.964;2022-12-26T18:35:31;97632.50;;;10.66;98.11
43701;BME280;58809;47.984;7.964;2022-12-26T18:38:32;97670.69;;;10.64;99.47
43701;BME280;58809;47.984;7.964;2022-12-26T18:41:34;97686.97;;;10.28;100.00
43701;BME280;58809;47.984;7.964;2022-12-26T18:44:36;97691.66;;;9.25;100.00
43701;BME280;58809;47.984;7.964;2022-12-26T18:47:38;97752.03;;;8.86;100.00
43701;BME280;58809;47.984;7.964;2022-12-26T18:50:41;97746.19;;;7.40;100.00
43701;BME280;58809;47.984;7.964;2022-12-26T18:53:42;97751.44;;;6.75;100.00
43701;BME280;58809;47.984;7.964;2022-12-26T18:56:44;97748.69;;;6.77;100.00
43701;BME280;58809;47.984;7.964;2022-12-26T18:59:46;97757.47;;;6.95;100.00
43701;BME280;58809;47.984;7.964;2022-12-26T19:02:49;97770.31;;;7.08;100.00
43701;BME280;58809;47.984;7.964;2022-12-26T19:05:51;97768.34;;;7.10;100.00
43701;BME280;58809;47.984;7.964;2022-12-26T19:08:53;97773.47;;;7.11;100.00
43701;BME280;58809;47.984;7.964;2022-12-26T19:11:55;97772.47;;;7.22;100.00
43701;BME280;58809;47.984;7.964;2022-12-26T19:14:56;97770.56;;;7.42;100.00
43701;BME280;58809;47.984;7.964;2022-12-26T19:17:58;97769.41;;;7.55;100.00
43701;BME280;58809;47.984;7.964;2022-12-26T19:21:00;97785.00;;;7.38;100.00
43701;BME280;58809;47.984;7.964;2022-12-26T19:24:02;97787.91;;;7.35;100.00
43701;BME280;58809;47.984;7.964;2022-12-26T19:27:03;97784.47;;;7.35;100.00
43701;BME280;58809;47.984;7.964;2022-12-26T19:30:06;97786.22;;;7.44;100.00